Time;durP1;ratioP1;P1;durP2;ratioP2;P2;SDS_P1;SDS_P2;PMS_P1;PMS_P2;Temp;Humidity;BMP_temperature;BMP_pressure;BME280_temperature;BME280_humidity;BME280_pressure;Samples;Min_cycle;Max_cycle;Signal;HPM_P1;HPM_P2
2023/10/23 00:01:20;;;;;;;15.32;6.15;;;;;;;18.76;86.46;98204.06;5070637;28;20663;-63
2023/10/23 00:03:46;;;;;;;18.50;7.03;;;;;;;18.93;87.38;98229.34;5070517;28;20177;-62
2023/10/23 00:06:11;;;;;;;19.00;6.55;;;;;;;18.90;87.83;98228.84;5070549;28;20184;-62
2023/10/23 00:08:36;;;;;;;21.40;6.93;;;;;;;18.72;87.68;98202.72;5070734;28;20196;-62
2023/10/23 00:11:02;;;;;;;14.45;6.07;;;;;;;18.71;88.32;98218.66;5070599;28;20202;-62
2023/10/23 00:13:27;;;;;;;18.40;6.55;;;;;;;18.64;88.80;98217.63;5102573;28;20632;-62
2023/10/23 00:15:52;;;;;;;19.08;6.65;;;;;;;18.65;89.33;98227.16;5050141;28;20331;-62
2023/10/23 00:18:18;;;;;;;16.63;6.35;;;;;;;18.42;89.23;98184.16;5050336;28;20542;-62
2023/10/23 00:20:43;;;;;;;20.15;7.10;;;;;;;18.62;89.23;98223.03;5050275;28;20235;-63
2023/10/23 00:23:09;;;;;;;16.35;6.75;;;;;;;18.56;90.01;98223.69;5050605;28;20235;-62
2023/10/23 00:25:34;;;;;;;24.88;7.60;;;;;;;18.51;89.27;98206.78;5050243;28;20200;-62
2023/10/23 00:28:00;;;;;;;24.33;7.05;;;;;;;18.57;89.27;98233.19;5050171;28;20184;-62
2023/10/23 00:30:26;;;;;;;25.38;7.00;;;;;;;18.43;89.10;98209.38;5050167;28;20185;-62
2023/10/23 00:32:51;;;;;;;18.25;6.45;;;;;;;18.60;88.95;98245.16;5050082;28;20611;-62
2023/10/23 00:35:17;;;;;;;19.05;6.38;;;;;;;18.43;89.17;98225.91;5049966;28;20268;-62
2023/10/23 00:37:42;;;;;;;17.50;6.40;;;;;;;18.39;89.20;98221.97;5049979;28;20216;-62
2023/10/23 00:40:08;;;;;;;14.13;6.85;;;;;;;18.41;89.62;98232.31;5049954;28;20581;-62
2023/10/23 00:42:33;;;;;;;21.75;6.05;;;;;;;18.33;89.99;98220.00;5049927;28;20272;-62
2023/10/23 00:44:59;;;;;;;17.85;6.57;;;;;;;18.33;90.77;98250.59;5049867;28;20643;-63
2023/10/23 00:47:25;;;;;;;18.63;6.93;;;;;;;18.32;91.37;98246.34;5095339;28;20274;-62
2023/10/23 00:49:51;;;;;;;15.05;6.35;;;;;;;18.38;91.36;98259.66;5069579;28;20802;-62
2023/10/23 00:52:17;;;;;;;24.55;6.70;;;;;;;18.34;91.47;98258.31;5069664;28;20176;-62
2023/10/23 00:54:42;;;;;;;20.98;6.32;;;;;;;18.28;91.44;98244.97;5069684;28;20670;-62
2023/10/23 00:57:08;;;;;;;18.33;6.13;;;;;;;18.25;92.68;98255.78;5069677;28;20724;-63
2023/10/23 00:59:34;;;;;;;19.55;5.35;;;;;;;18.26;92.63;98257.41;5069571;28;20219;-62
2023/10/23 01:02:00;;;;;;;18.63;6.18;;;;;;;18.09;92.31;98221.66;5069599;28;20648;-62
2023/10/23 01:04:26;;;;;;;19.67;6.18;;;;;;;18.26;92.36;98244.31;5069518;28;20195;-62
2023/10/23 01:06:52;;;;;;;14.55;6.25;;;;;;;18.11;92.53;98214.44;5029371;28;20318;-61
2023/10/23 01:09:17;;;;;;;18.80;6.40;;;;;;;18.11;91.42;98203.97;5029475;28;20276;-62
2023/10/23 01:11:43;;;;;;;19.58;6.80;;;;;;;18.05;92.11;98210.66;5029566;28;20188;-62
2023/10/23 01:14:08;;;;;;;11.07;5.07;;;;;;;18.12;92.53;98229.19;5029538;28;20844;-63
2023/10/23 01:16:34;;;;;;;14.68;5.63;;;;;;;18.15;92.48;98236.72;5028866;28;20182;-62
2023/10/23 01:18:59;;;;;;;17.75;6.28;;;;;;;18.08;92.81;98217.38;5029266;28;20248;-62
2023/10/23 01:21:25;;;;;;;17.95;6.57;;;;;;;18.13;92.71;98233.47;5059196;28;20196;-62
2023/10/23 01:23:51;;;;;;;22.20;6.38;;;;;;;18.09;92.76;98232.13;5069093;28;20185;-62
2023/10/23 01:26:17;;;;;;;14.57;6.00;;;;;;;18.14;92.80;98245.56;5069149;28;20578;-63
2023/10/23 01:28:43;;;;;;;20.25;6.15;;;;;;;18.20;92.92;98252.81;5069353;28;20283;-63
2023/10/23 01:31:09;;;;;;;16.42;6.00;;;;;;;18.18;93.00;98249.53;5028967;28;20295;-63
2023/10/23 01:33:34;;;;;;;17.05;7.07;;;;;;;18.11;93.46;98251.09;5029170;28;20194;-62
2023/10/23 01:35:59;;;;;;;14.93;5.82;;;;;;;18.06;94.04;98261.22;5028979;28;20181;-63
2023/10/23 01:38:25;;;;;;;14.18;5.78;;;;;;;18.05;94.21;98256.97;5028868;28;20224;-63
2023/10/23 01:40:50;;;;;;;16.95;5.60;;;;;;;18.05;94.08;98252.56;5028975;28;20629;-62
2023/10/23 01:43:16;;;;;;;16.60;6.07;;;;;;;18.08;93.33;98259.28;5032242;28;20193;-63
2023/10/23 01:45:41;;;;;;;15.77;5.45;;;;;;;17.95;93.13;98240.56;5068818;28;20192;-63
2023/10/23 01:48:06;;;;;;;19.40;5.88;;;;;;;17.86;92.71;98223.16;5068863;28;20599;-63
2023/10/23 01:50:32;;;;;;;17.40;5.22;;;;;;;18.04;89.47;98243.06;5069095;28;20687;-63
2023/10/23 01:52:57;;;;;;;24.10;5.90;;;;;;;18.16;85.65;98246.22;5068843;28;20215;-63
2023/10/23 01:55:23;;;;;;;22.73;6.05;;;;;;;18.37;83.51;98262.41;5069050;28;20271;-63
2023/10/23 01:57:48;;;;;;;29.58;6.00;;;;;;;18.27;81.94;98227.63;5068685;28;20295;-63
2023/10/23 02:00:13;;;;;;;17.73;5.82;;;;;;;18.31;80.58;98216.69;5068664;28;20277;-63
2023/10/23 02:02:39;;;;;;;20.65;5.97;;;;;;;18.61;79.72;98254.66;5099383;28;20676;-63
2023/10/23 02:05:05;;;;;;;27.90;5.95;;;;;;;18.55;79.01;98236.94;5111278;28;20177;-63
2023/10/23 02:07:31;;;;;;;28.00;6.13;;;;;;;18.52;78.49;98219.72;5111492;28;20182;-62
2023/10/23 02:09:56;;;;;;;29.35;6.45;;;;;;;18.72;78.34;98249.91;5111593;28;20178;-63
2023/10/23 02:12:23;;;;;;;24.10;6.20;;;;;;;18.71;77.98;98231.75;5111621;28;20537;-63
2023/10/23 02:14:50;;;;;;;24.60;5.75;;;;;;;18.58;77.87;98208.59;5111701;28;20195;-63
2023/10/23 02:17:17;;;;;;;22.70;6.40;;;;;;;18.80;77.14;98243.88;5111266;28;20602;-63
2023/10/23 02:19:42;;;;;;;19.85;5.63;;;;;;;18.64;77.13;98207.97;5111166;28;20195;-63
2023/10/23 02:22:08;;;;;;;22.65;5.15;;;;;;;18.64;76.86;98213.22;5111477;28;20557;-62
2023/10/23 02:24:33;;;;;;;21.55;5.50;;;;;;;18.60;76.51;98217.13;5111448;28;20194;-62
2023/10/23 02:26:58;;;;;;;24.63;5.95;;;;;;;18.92;76.28;98268.81;5112963;28;20175;-63
2023/10/23 02:29:24;;;;;;;31.25;5.93;;;;;;;18.65;76.58;98225.31;5115546;28;20206;-63
2023/10/23 02:31:49;;;;;;;24.10;5.75;;;;;;;18.83;76.50;98260.09;5092448;28;20187;-63
2023/10/23 02:34:14;;;;;;;26.15;5.95;;;;;;;18.87;76.49;98265.84;5092574;28;20266;-63
2023/10/23 02:36:40;;;;;;;24.45;5.10;;;;;;;18.70;76.35;98232.72;5092466;28;20272;-63
2023/10/23 02:39:06;;;;;;;26.20;6.15;;;;;;;18.72;75.98;98236.00;5092493;28;20623;-62
2023/10/23 02:41:31;;;;;;;27.30;6.28;;;;;;;18.89;75.93;98264.72;5052046;28;20196;-63
2023/10/23 02:43:57;;;;;;;25.83;6.88;;;;;;;18.92;75.89;98268.81;5052196;28;20181;-63
2023/10/23 02:46:22;;;;;;;22.90;5.82;;;;;;;18.93;75.80;98267.84;5052115;28;20279;-63
2023/10/23 02:48:47;;;;;;;26.77;6.07;;;;;;;18.69;75.67;98231.91;5052048;28;20246;-63
2023/10/23 02:51:13;;;;;;;26.23;6.18;;;;;;;18.75;75.60;98235.69;5052239;28;20254;-63
2023/10/23 02:53:38;;;;;;;20.77;5.15;;;;;;;18.83;75.47;98259.31;5052019;28;20268;-63
2023/10/23 02:56:09;;;;;;;22.38;5.38;;;;;;;18.72;75.72;98236.00;5052016;28;20699;-63
2023/10/23 02:58:35;;;;;;;22.15;5.55;;;;;;;18.91;75.86;98275.06;5052102;28;20300;-63
2023/10/23 03:01:01;;;;;;;24.55;5.65;;;;;;;18.76;75.39;98247.81;5051870;28;20264;-63
2023/10/23 03:03:26;;;;;;;19.63;5.03;;;;;;;18.85;75.51;98268.66;5066962;28;20188;-63
2023/10/23 03:05:52;;;;;;;24.35;5.90;;;;;;;18.80;76.00;98263.06;5071777;28;20211;-63
2023/10/23 03:08:17;;;;;;;26.92;5.88;;;;;;;18.75;75.58;98254.03;5071639;28;20189;-63
2023/10/23 03:10:43;;;;;;;19.27;5.65;;;;;;;18.75;76.47;98272.38;5071598;28;20279;-62
2023/10/23 03:13:08;;;;;;;28.10;6.03;;;;;;;18.79;76.43;98277.16;5071441;28;20321;-63
2023/10/23 03:15:36;;;;;;;19.08;5.20;;;;;;;18.76;76.19;98274.03;5071709;28;20223;-62
2023/10/23 03:18:03;;;;;;;25.02;5.90;;;;;;;18.81;76.43;98276.97;5076673;28;20204;-64
2023/10/23 03:20:29;;;;;;;17.60;5.57;;;;;;;18.75;76.13;98261.88;5114593;28;20179;-63
2023/10/23 03:22:55;;;;;;;21.70;6.80;;;;;;;18.87;75.56;98273.72;5114595;28;20182;-63
2023/10/23 03:25:20;;;;;;;26.88;5.97;;;;;;;18.82;74.67;98252.44;5114241;28;20176;-63
2023/10/23 03:27:46;;;;;;;26.75;5.43;;;;;;;18.81;74.59;98240.28;5114711;28;20266;-63
2023/10/23 03:30:11;;;;;;;17.58;6.03;;;;;;;18.77;74.34;98245.03;5114703;28;20174;-63
2023/10/23 03:32:37;;;;;;;24.60;5.65;;;;;;;18.88;74.55;98257.03;5114060;28;20205;-62
2023/10/23 03:35:03;;;;;;;26.02;5.75;;;;;;;18.96;74.64;98275.41;5114272;28;20284;-63
2023/10/23 03:37:28;;;;;;;25.52;6.10;;;;;;;18.75;74.88;98256.66;5114113;28;20179;-63
2023/10/23 03:39:54;;;;;;;23.02;5.22;;;;;;;18.90;75.32;98278.66;5113430;28;20176;-63
2023/10/23 03:42:19;;;;;;;28.88;5.88;;;;;;;18.70;75.56;98259.75;5114147;28;20523;-63
2023/10/23 03:44:45;;;;;;;25.42;5.75;;;;;;;18.62;75.93;98259.75;5113997;28;20216;-63
2023/10/23 03:47:10;;;;;;;22.15;5.53;;;;;;;18.65;75.86;98274.31;5114123;28;20167;-63
2023/10/23 03:49:35;;;;;;;25.52;5.28;;;;;;;18.76;75.72;98279.28;5114179;28;20186;-62
2023/10/23 03:52:01;;;;;;;21.02;4.78;;;;;;;18.56;76.14;98263.00;5114203;28;20175;-63
2023/10/23 03:54:26;;;;;;;25.10;5.75;;;;;;;18.70;76.20;98280.72;5113736;28;20171;-62
2023/10/23 03:56:52;;;;;;;21.75;5.95;;;;;;;18.51;76.18;98254.78;5113754;28;20171;-62
2023/10/23 03:59:17;;;;;;;23.40;5.78;;;;;;;18.58;76.49;98284.59;5113737;28;20203;-62
2023/10/23 04:01:42;;;;;;;22.77;5.95;;;;;;;18.37;76.13;98237.00;5090629;28;20191;-62
2023/10/23 04:04:08;;;;;;;21.70;5.82;;;;;;;18.63;75.99;98281.50;5090730;28;20226;-62
2023/10/23 04:06:34;;;;;;;20.50;6.63;;;;;;;18.48;76.21;98262.94;5090772;28;20592;-62
2023/10/23 04:08:59;;;;;;;22.75;5.28;;;;;;;18.33;76.19;98234.88;5090657;28;20206;-62
2023/10/23 04:11:26;;;;;;;24.05;5.95;;;;;;;18.55;76.60;98269.22;5090551;28;20180;-63
2023/10/23 04:13:51;;;;;;;20.27;5.28;;;;;;;18.29;76.54;98241.38;5090347;28;20661;-63
2023/10/23 04:16:17;;;;;;;19.48;5.75;;;;;;;18.45;76.47;98265.88;5090523;28;20180;-63
2023/10/23 04:18:43;;;;;;;22.00;4.88;;;;;;;18.38;76.66;98245.72;5090408;28;20210;-63
2023/10/23 04:21:10;;;;;;;26.67;5.70;;;;;;;18.39;76.47;98249.97;5090453;28;20172;-63
2023/10/23 04:23:37;;;;;;;22.42;5.63;;;;;;;18.29;76.42;98233.50;5090431;28;20183;-63
2023/10/23 04:26:03;;;;;;;21.70;5.95;;;;;;;18.32;76.48;98228.00;5090180;28;20184;-62
2023/10/23 04:28:30;;;;;;;19.92;5.90;;;;;;;18.53;76.17;98265.09;5090294;28;20199;-62
2023/10/23 04:30:56;;;;;;;16.40;4.93;;;;;;;18.45;76.36;98259.81;5090497;28;20179;-62
2023/10/23 04:33:22;;;;;;;22.67;5.82;;;;;;;18.49;76.49;98279.50;5090308;28;20191;-62
2023/10/23 04:35:52;;;;;;;19.73;4.63;;;;;;;18.42;76.22;98260.94;5090246;28;20323;-62
2023/10/23 04:38:17;;;;;;;24.27;5.65;;;;;;;18.31;76.54;98253.38;5093505;28;20700;-62
2023/10/23 04:40:44;;;;;;;27.92;6.20;;;;;;;18.54;76.51;98287.72;5112978;28;20308;-63
2023/10/23 04:43:10;;;;;;;19.98;5.38;;;;;;;18.42;76.43;98270.63;5112903;28;20268;-62
2023/10/23 04:45:36;;;;;;;22.75;6.30;;;;;;;18.52;76.19;98287.03;5113208;28;20205;-62
2023/10/23 04:48:02;;;;;;;19.60;5.78;;;;;;;18.49;76.74;98292.59;5112812;28;20214;-63
2023/10/23 04:50:31;;;;;;;25.13;5.40;;;;;;;18.47;76.69;98286.69;5112143;28;20175;-62
2023/10/23 04:52:56;;;;;;;24.10;5.20;;;;;;;18.45;76.95;98289.47;5112861;28;20182;-63
2023/10/23 04:55:21;;;;;;;27.15;6.03;;;;;;;18.42;76.16;98275.88;5112817;28;20523;-63
2023/10/23 04:57:47;;;;;;;19.42;6.55;;;;;;;18.27;76.02;98251.19;5112714;28;20203;-63
2023/10/23 05:00:13;;;;;;;22.65;5.75;;;;;;;18.46;76.53;98290.28;5112260;28;20676;-63
2023/10/23 05:02:39;;;;;;;22.60;5.72;;;;;;;18.47;76.30;98295.38;5112386;28;20220;-64
2023/10/23 05:05:06;;;;;;;23.85;5.95;;;;;;;18.36;77.01;98294.84;5112452;28;20183;-63
2023/10/23 05:07:31;;;;;;;17.38;5.88;;;;;;;18.39;77.15;98295.34;5112444;28;20182;-63
2023/10/23 05:09:57;;;;;;;19.90;5.82;;;;;;;18.17;76.97;98266.19;5112141;28;20658;-63
2023/10/23 05:12:22;;;;;;;36.10;6.32;;;;;;;18.09;77.32;98269.63;5112489;28;20258;-62
2023/10/23 05:14:47;;;;;;;26.05;7.95;;;;;;;18.19;77.94;98300.94;5112423;28;20183;-62
2023/10/23 05:17:15;;;;;;;20.77;6.20;;;;;;;18.21;77.50;98312.06;5112083;28;20236;-62
2023/10/23 05:19:40;;;;;;;25.15;6.95;;;;;;;18.20;77.70;98310.41;5112126;28;20199;-62
2023/10/23 05:22:06;;;;;;;29.55;6.18;;;;;;;18.15;77.13;98291.72;5112457;28;20179;-62
2023/10/23 05:24:31;;;;;;;22.38;6.00;;;;;;;18.33;77.42;98330.03;5112134;28;20629;-62
2023/10/23 05:26:57;;;;;;;19.45;5.40;;;;;;;18.29;76.81;98318.16;5112440;28;20179;-62
2023/10/23 05:29:22;;;;;;;34.97;5.20;;;;;;;18.24;77.31;98309.94;5112140;28;20213;-62
2023/10/23 05:31:47;;;;;;;17.30;5.05;;;;;;;18.41;76.67;98339.72;5112151;28;20616;-62
2023/10/23 05:34:13;;;;;;;26.45;5.90;;;;;;;18.44;76.56;98334.16;5112045;28;20187;-62
2023/10/23 05:36:39;;;;;;;24.63;6.35;;;;;;;18.49;76.23;98337.16;5111895;28;20178;-63
2023/10/23 05:39:05;;;;;;;18.80;5.03;;;;;;;18.38;76.41;98312.03;5111901;28;20198;-62
2023/10/23 05:41:31;;;;;;;25.85;5.43;;;;;;;18.47;76.54;98341.72;5111891;28;20201;-62
2023/10/23 05:43:56;;;;;;;20.83;5.82;;;;;;;18.54;76.79;98348.78;5111932;28;20175;-62
2023/10/23 05:46:22;;;;;;;26.23;5.63;;;;;;;18.40;77.81;98317.09;5112174;28;20530;-61
2023/10/23 05:48:48;;;;;;;16.80;5.57;;;;;;;18.39;79.13;98318.09;5111740;28;20179;-62
2023/10/23 05:51:14;;;;;;;19.55;6.45;;;;;;;18.56;81.13;98351.25;5111842;28;20232;-63
2023/10/23 05:53:39;;;;;;;19.95;6.78;;;;;;;18.51;82.08;98346.50;5111877;28;20175;-62
2023/10/23 05:56:06;;;;;;;32.33;7.45;;;;;;;18.50;84.62;98357.13;5111796;28;20175;-62
2023/10/23 05:58:33;;;;;;;19.95;6.47;;;;;;;18.42;83.91;98338.75;5111560;28;20222;-62
2023/10/23 06:01:09;;;;;;;26.58;6.32;;;;;;;18.39;84.12;98332.03;5111206;28;20662;-63
2023/10/23 06:03:35;;;;;;;32.35;8.77;;;;;;;18.43;84.91;98335.16;5111678;28;20166;-62
2023/10/23 06:06:00;;;;;;;32.22;10.25;;;;;;;18.63;84.83;98363.59;5111596;28;20202;-62
2023/10/23 06:08:26;;;;;;;31.20;10.13;;;;;;;18.49;85.65;98347.63;5111513;28;20230;-63
2023/10/23 06:10:53;;;;;;;43.10;11.23;;;;;;;18.54;86.10;98361.09;5111552;28;20183;-63
2023/10/23 06:13:20;;;;;;;36.67;12.00;;;;;;;18.44;87.37;98357.75;5111457;28;20198;-63
2023/10/23 06:15:46;;;;;;;35.17;11.30;;;;;;;18.34;88.32;98362.25;5111519;28;20171;-62
2023/10/23 06:18:11;;;;;;;28.17;9.00;;;;;;;18.32;88.07;98359.81;5111440;28;20195;-63
2023/10/23 06:20:37;;;;;;;20.52;6.57;;;;;;;18.28;87.81;98347.13;5111518;28;20167;-63
2023/10/23 06:23:03;;;;;;;20.00;6.55;;;;;;;18.47;79.26;98349.59;5111379;28;20641;-63
2023/10/23 06:25:29;;;;;;;19.27;5.70;;;;;;;18.66;79.84;98375.56;5111394;28;20262;-63
2023/10/23 06:27:55;;;;;;;21.88;5.88;;;;;;;18.55;78.37;98324.25;5111420;28;20262;-63
2023/10/23 06:30:21;;;;;;;19.00;5.95;;;;;;;18.72;76.69;98340.84;5111335;28;20175;-63
2023/10/23 06:32:47;;;;;;;23.05;5.43;;;;;;;19.04;76.05;98368.03;5111307;28;20537;-63
2023/10/23 06:35:12;;;;;;;22.80;5.93;;;;;;;19.20;74.33;98367.25;5111272;28;20206;-63
2023/10/23 06:37:37;;;;;;;21.20;5.63;;;;;;;19.32;72.56;98379.13;5111132;28;20538;-63
2023/10/23 06:40:04;;;;;;;19.00;5.70;;;;;;;19.32;71.83;98356.34;5111445;28;20168;-63
2023/10/23 06:42:29;;;;;;;26.13;5.63;;;;;;;19.55;71.22;98375.75;5111219;28;20194;-63
2023/10/23 06:44:55;;;;;;;28.50;6.32;;;;;;;19.64;70.55;98368.69;5111450;28;20666;-63
2023/10/23 06:47:21;;;;;;;25.00;5.18;;;;;;;19.61;71.04;98355.88;5111173;28;20298;-62
2023/10/23 06:49:46;;;;;;;21.90;7.93;;;;;;;19.74;74.49;98358.84;5111098;28;20196;-62
2023/10/23 06:52:13;;;;;;;26.67;8.88;;;;;;;19.81;77.40;98363.28;5111135;28;20592;-63
2023/10/23 06:54:38;;;;;;;21.30;6.28;;;;;;;19.86;72.73;98360.16;5111051;28;20649;-65
2023/10/23 06:57:06;;;;;;;29.83;6.03;;;;;;;19.97;69.25;98362.47;5110997;28;20174;-63
2023/10/23 06:59:33;;;;;;;18.63;4.88;;;;;;;20.14;67.53;98372.84;5110948;28;20789;-62
2023/10/23 07:01:58;;;;;;;21.20;5.38;;;;;;;19.95;66.90;98319.78;5111266;28;20629;-63
2023/10/23 07:04:24;;;;;;;21.35;6.18;;;;;;;20.25;66.21;98345.38;5110628;28;20172;-62
2023/10/23 07:06:49;;;;;;;17.27;5.07;;;;;;;20.42;65.27;98341.75;5110938;28;20284;-63
2023/10/23 07:09:17;;;;;;;19.60;4.82;;;;;;;20.74;64.96;98363.50;5110644;28;20175;-62
2023/10/23 07:11:42;;;;;;;17.67;5.80;;;;;;;20.82;64.81;98341.63;5110847;28;20179;-62
2023/10/23 07:14:08;;;;;;;32.67;6.75;;;;;;;20.72;65.45;98330.47;5112415;28;20290;-62
2023/10/23 07:16:33;;;;;;;22.05;5.88;;;;;;;20.71;66.38;98321.78;5114626;28;20163;-62
2023/10/23 07:18:58;;;;;;;29.88;7.38;;;;;;;20.95;69.46;98360.34;5114474;28;20195;-62
2023/10/23 07:21:25;;;;;;;24.77;7.82;;;;;;;20.76;71.47;98321.25;5114511;28;20254;-62
2023/10/23 07:23:51;;;;;;;24.10;7.47;;;;;;;20.68;72.00;98323.94;5114490;28;20175;-63
2023/10/23 07:26:16;;;;;;;23.67;7.63;;;;;;;20.59;72.64;98317.88;5114321;28;20250;-62
2023/10/23 07:28:42;;;;;;;28.50;8.18;;;;;;;20.64;72.93;98330.50;5114214;28;20190;-62
2023/10/23 07:31:09;;;;;;;34.78;7.85;;;;;;;20.54;73.43;98312.31;5114435;28;20185;-62
2023/10/23 07:33:34;;;;;;;16.58;6.63;;;;;;;20.67;73.84;98335.41;5114669;28;20255;-62
2023/10/23 07:36:02;;;;;;;21.08;7.38;;;;;;;20.66;73.85;98324.09;5114325;28;20629;-62
2023/10/23 07:38:28;;;;;;;27.65;6.53;;;;;;;20.69;73.78;98331.63;5114184;28;20681;-63
2023/10/23 07:40:53;;;;;;;21.27;7.43;;;;;;;20.55;73.98;98297.34;5114247;28;20214;-62
2023/10/23 07:43:19;;;;;;;21.73;6.07;;;;;;;20.81;73.46;98329.47;5114154;28;20171;-62
2023/10/23 07:45:44;;;;;;;26.13;6.78;;;;;;;20.80;71.39;98330.47;5114206;28;20178;-63
2023/10/23 07:48:09;;;;;;;25.95;5.82;;;;;;;20.93;69.69;98333.38;5114093;28;20625;-62
2023/10/23 07:50:35;;;;;;;20.83;6.00;;;;;;;20.79;68.89;98291.97;5070768;28;20193;-63
2023/10/23 07:53:00;;;;;;;23.48;6.18;;;;;;;21.07;68.36;98322.97;5070870;28;20184;-63
2023/10/23 07:55:26;;;;;;;24.23;5.50;;;;;;;21.27;66.70;98328.59;5070934;28;20679;-63
2023/10/23 07:57:51;;;;;;;29.23;6.78;;;;;;;21.25;65.29;98314.78;5070739;28;20204;-64
2023/10/23 08:00:17;;;;;;;20.63;5.38;;;;;;;21.29;64.96;98316.09;5070779;28;20184;-63
2023/10/23 08:02:42;;;;;;;27.30;6.10;;;;;;;21.53;63.71;98350.16;5070766;28;20670;-63
2023/10/23 08:05:08;;;;;;;28.15;5.32;;;;;;;21.38;62.87;98312.41;5070662;28;20192;-63
2023/10/23 08:07:34;;;;;;;19.90;5.18;;;;;;;21.61;61.64;98348.28;5070922;28;20270;-63
2023/10/23 08:09:59;;;;;;;24.23;5.53;;;;;;;21.54;62.06;98326.28;5070632;28;20189;-63
2023/10/23 08:12:24;;;;;;;24.23;6.82;;;;;;;21.55;63.19;98338.44;5070637;28;20286;-62
2023/10/23 08:14:50;;;;;;;39.30;6.70;;;;;;;21.63;64.43;98361.28;5070246;28;20569;-63
2023/10/23 08:17:16;;;;;;;30.70;7.60;;;;;;;21.40;65.48;98318.31;5070443;28;20247;-62
2023/10/23 08:19:41;;;;;;;30.15;6.55;;;;;;;21.37;66.63;98321.28;5070335;28;20208;-62
2023/10/23 08:22:06;;;;;;;23.85;7.22;;;;;;;21.42;67.68;98326.84;5101686;28;20191;-62
2023/10/23 08:24:32;;;;;;;21.83;6.25;;;;;;;21.46;67.98;98344.78;5113563;28;20227;-62
2023/10/23 08:26:57;;;;;;;29.05;7.93;;;;;;;21.40;66.70;98334.13;5113370;28;20179;-63
2023/10/23 08:29:23;;;;;;;33.17;7.70;;;;;;;21.47;67.41;98356.13;5113307;28;20676;-62
2023/10/23 08:31:48;;;;;;;26.80;7.20;;;;;;;21.32;67.58;98319.19;5113354;28;20228;-62
2023/10/23 08:34:13;;;;;;;31.15;8.18;;;;;;;21.41;67.67;98319.94;5113307;28;20167;-62
2023/10/23 08:36:39;;;;;;;21.58;6.65;;;;;;;21.53;66.17;98315.91;5113167;28;20180;-62
2023/10/23 08:39:04;;;;;;;29.35;7.63;;;;;;;21.67;66.47;98320.44;5112958;28;20199;-62
2023/10/23 08:41:31;;;;;;;24.35;7.05;;;;;;;21.73;64.81;98338.19;5049875;28;20197;-63
2023/10/23 08:43:56;;;;;;;29.65;6.55;;;;;;;21.87;64.31;98332.16;5049972;28;20778;-63
2023/10/23 08:46:26;;;;;;;26.65;6.30;;;;;;;22.01;63.35;98334.81;5049974;28;20246;-62
2023/10/23 08:48:52;;;;;;;21.92;5.88;;;;;;;22.08;62.38;98334.94;5049918;28;20246;-63
2023/10/23 08:51:17;;;;;;;26.13;6.15;;;;;;;22.01;62.28;98302.38;5049852;28;20197;-63
2023/10/23 08:53:50;;;;;;;29.15;6.82;;;;;;;22.29;62.32;98332.41;5049882;28;20205;-63
2023/10/23 08:56:16;;;;;;;30.13;6.55;;;;;;;22.27;61.53;98313.31;4990291;28;20188;-63
2023/10/23 08:58:49;;;;;;;35.28;8.13;;;;;;;22.50;62.23;98336.00;4990587;28;20743;-62
2023/10/23 09:01:16;;;;;;;32.40;7.20;;;;;;;22.55;62.79;98327.56;4990488;28;20187;-63
2023/10/23 09:03:41;;;;;;;35.08;7.65;;;;;;;22.49;62.51;98294.81;4990415;28;20305;-63
2023/10/23 09:06:09;;;;;;;36.03;9.23;;;;;;;22.57;61.62;98296.53;4990629;28;20259;-63
2023/10/23 09:08:37;;;;;;;33.33;7.30;;;;;;;22.76;61.23;98319.72;4990289;28;20267;-63
2023/10/23 09:11:04;;;;;;;22.48;7.90;;;;;;;22.88;62.10;98342.81;4990230;28;20183;-63
2023/10/23 09:13:38;;;;;;;29.75;7.82;;;;;;;22.83;61.03;98324.09;5025826;28;20202;-63
2023/10/23 09:16:05;;;;;;;39.63;8.20;;;;;;;22.97;60.43;98327.72;5029430;28;20198;-63
2023/10/23 09:18:31;;;;;;;29.75;8.25;;;;;;;22.95;60.79;98319.97;5029292;28;20214;-62
2023/10/23 09:20:57;;;;;;;36.67;8.32;;;;;;;23.10;61.02;98333.13;5009363;28;20281;-63
2023/10/23 09:23:22;;;;;;;34.22;8.43;;;;;;;23.14;60.92;98339.69;5009677;28;20249;-63
2023/10/23 09:25:49;;;;;;;27.30;8.43;;;;;;;23.14;60.95;98337.06;5009749;28;20186;-62
2023/10/23 09:28:14;;;;;;;42.05;8.55;;;;;;;23.07;60.57;98309.78;4989852;28;20275;-62
2023/10/23 09:30:42;;;;;;;34.45;7.93;;;;;;;23.22;60.84;98316.69;4989907;28;20195;-64
2023/10/23 09:33:10;;;;;;;32.30;9.00;;;;;;;23.25;60.88;98310.22;5000269;28;20331;-63
2023/10/23 09:35:35;;;;;;;30.98;9.10;;;;;;;23.35;60.58;98313.34;5029213;28;20190;-63
2023/10/23 09:38:11;;;;;;;28.35;8.63;;;;;;;23.24;59.32;98288.25;5028549;28;20629;-63
2023/10/23 09:40:36;;;;;;;30.42;8.77;;;;;;;23.53;59.08;98313.75;5009202;28;20205;-63
2023/10/23 09:43:01;;;;;;;34.47;9.55;;;;;;;23.35;58.89;98279.00;5009425;28;20186;-63
2023/10/23 09:45:30;;;;;;;35.20;8.10;;;;;;;23.58;57.92;98303.41;5009012;28;20607;-63
2023/10/23 09:47:59;;;;;;;29.77;8.10;;;;;;;23.62;57.75;98296.75;5009337;28;20681;-63
2023/10/23 09:50:27;;;;;;;34.53;7.90;;;;;;;23.56;57.81;98285.13;5009221;28;20218;-63
2023/10/23 09:52:56;;;;;;;40.33;8.73;;;;;;;23.59;57.45;98274.16;5009100;28;20304;-63
2023/10/23 09:55:26;;;;;;;39.13;8.52;;;;;;;23.77;57.14;98302.78;5009167;28;20564;-62
2023/10/23 09:57:53;;;;;;;25.23;6.75;;;;;;;23.74;57.09;98296.06;5009334;28;20183;-64
2023/10/23 10:00:19;;;;;;;32.58;8.10;;;;;;;23.74;56.99;98296.06;5009118;28;20257;-63
2023/10/23 10:02:55;;;;;;;28.00;7.07;;;;;;;23.80;57.32;98300.59;5009147;28;20174;-62
2023/10/23 10:05:56;;;;;;;31.95;6.97;;;;;;;23.73;57.28;98293.59;5009124;28;20198;-62
2023/10/23 10:08:24;;;;;;;23.33;5.88;;;;;;;23.66;56.72;98277.69;5009052;28;20201;-62
2023/10/23 10:10:51;;;;;;;27.13;7.13;;;;;;;23.73;56.56;98287.31;5019580;28;20188;-63
2023/10/23 10:13:19;;;;;;;23.63;6.22;;;;;;;23.60;56.49;98275.00;5068426;28;20180;-63
2023/10/23 10:15:44;;;;;;;28.60;6.80;;;;;;;23.77;56.39;98286.94;5077588;28;20617;-63
2023/10/23 10:18:11;;;;;;;23.48;6.95;;;;;;;23.77;56.32;98281.66;5111503;28;20195;-63
2023/10/23 10:20:38;;;;;;;24.02;7.10;;;;;;;23.67;57.11;98252.91;5111536;28;20230;-62
2023/10/23 10:23:11;;;;;;;28.38;7.18;;;;;;;23.99;55.13;98281.44;5111535;28;20182;-63
2023/10/23 10:25:39;;;;;;;19.48;5.78;;;;;;;24.08;54.73;98276.84;5111590;28;20265;-62
2023/10/23 10:28:07;;;;;;;23.75;6.57;;;;;;;24.24;52.82;98277.34;5111509;28;20182;-63
2023/10/23 10:30:49;;;;;;;31.30;7.75;;;;;;;24.28;53.52;98268.84;5111464;28;20599;-62
2023/10/23 10:33:23;;;;;;;35.88;7.10;;;;;;;24.44;52.52;98268.50;5111387;28;20172;-64
2023/10/23 10:36:04;;;;;;;30.95;6.10;;;;;;;24.49;52.68;98255.53;5111474;28;20233;-64
2023/10/23 10:38:31;;;;;;;35.90;6.10;;;;;;;24.71;51.83;98270.31;5048125;28;20216;-64
2023/10/23 10:41:02;;;;;;;33.00;6.65;;;;;;;24.82;51.00;98267.09;5048356;28;20731;-63
2023/10/23 10:43:33;;;;;;;28.75;6.55;;;;;;;24.79;50.81;98225.13;5048359;28;20604;-63
2023/10/23 10:46:05;;;;;;;31.33;6.90;;;;;;;25.04;50.98;98259.84;5048284;28;20247;-63
2023/10/23 10:48:47;;;;;;;19.02;5.70;;;;;;;25.14;50.70;98258.44;5048879;28;20592;-63
2023/10/23 10:51:18;;;;;;;22.63;6.55;;;;;;;25.21;51.03;98250.50;5052305;28;20184;-63
2023/10/23 10:53:46;;;;;;;24.13;5.97;;;;;;;25.20;51.29;98228.50;5052136;28;20247;-64
2023/10/23 10:56:12;;;;;;;29.10;6.28;;;;;;;25.37;50.04;98236.94;5031864;28;20618;-63
2023/10/23 10:58:42;;;;;;;22.83;6.90;;;;;;;25.47;50.00;98248.75;5031931;28;20244;-63
2023/10/23 11:01:08;;;;;;;33.08;6.47;;;;;;;25.31;50.53;98214.69;5032054;28;20676;-63
2023/10/23 11:03:34;;;;;;;29.95;6.90;;;;;;;25.43;51.08;98236.91;5011997;28;20421;-63
2023/10/23 11:06:00;;;;;;;24.67;6.43;;;;;;;25.47;51.04;98214.31;5012260;28;20191;-63
2023/10/23 11:08:27;;;;;;;27.83;6.28;;;;;;;25.53;51.13;98223.25;5014375;28;20224;-63
2023/10/23 11:10:55;;;;;;;26.08;6.18;;;;;;;25.67;49.99;98231.00;5051758;28;20208;-64
2023/10/23 11:13:20;;;;;;;33.20;7.75;;;;;;;25.68;49.31;98230.03;5051540;28;20201;-63
2023/10/23 11:15:46;;;;;;;29.42;6.47;;;;;;;25.75;49.66;98233.47;5051717;28;20185;-63
2023/10/23 11:18:12;;;;;;;35.50;7.05;;;;;;;25.80;50.01;98230.19;5051474;28;20603;-63
2023/10/23 11:20:38;;;;;;;26.20;6.43;;;;;;;25.82;49.96;98210.41;5051490;28;20181;-63